White Mountain, Alaska
Current Conditions -  °F | °C
As of 5:58 PM on Monday 22 Dec 2014 (Local Time) from PAWM Reporting Station
Clear Clear  
Wind Chill: -19°   Ceiling: Unl
Heat Index: -4°   Visibility: 10mi
Dew Point: -7°   Wind: 8mph
Humidity: 87%   Direction: 360°N
Pressure: 30.09"   Gusts: NA
Location:  64.68°N, 163.41°W
Report Text: PAWM 230258Z AUTO 36007KT 10SM CLR M20/M22 A3009 RMK AO2 SLP203 T12001217 53010 FZRANO
Loading
Personal Weather Stations






























Interactive Weather Map New forecast layout! Learn more

10-Day Weather Forecast

Advertisements
Track Severe Weather on mobile